Current | Forecast
Updated: 5:00 AM MSK on December 11, 2017
Observed at Volgograd, Russia
Temperature 34°F
Windchill 23°F
Humidity 100%
Dew Point 34°F
Wind SE at 18 mph
Pressure 30.06 in (Rising)
Conditions Fog
Visibility 0.1 miles
UV N/A
Clouds
Yesterday's Maximum 37°F
Yesterday's Minimum 30°F approx.
Yesterday's Heating Degree Days 31 approx.
Sunrise7:45 AM MSK
Sunset4:05 PM MSK
Moon Rise12:11 AM MSK
Moon Set1:06 PM MSK
Moon PhaseMoon Phase
Last Quarter
Raw METARMETAR URWW 110200Z 14008MPS 0150 R06/0550N FG VV001 01/01 Q1018 R06/310250 NOSIG RMK QBB050 OBST OBSC


Monday
. High: 71° F.
Tuesday
. High: 71° F.
Wednesday
. High: 64° F.
Thursday
. High: 62° F.
Friday
. High: 62° F.
Saturday
. High: 60° F.
Sunday
. High: 62° F.
Monday
. High: 68° F.

Units: English | Metric

Find the Weather for any City, State or Zipcode, or Country:

U.S. State List | Severe Weather | Tropical Storms | Ski Conditions
United States | Canada | Central America | South America | Asia | Europe | Australia | Africa | Islands

Weather Underground

© Copyright 2017
The Weather Company, LLC